createdAt,value
2023-03-23T15:59:39.591Z,14.77
2023-03-23T16:02:07.107Z,14.76
2023-03-23T16:04:34.489Z,14.71
2023-03-23T16:07:01.926Z,14.72
2023-03-23T16:09:29.251Z,14.68
2023-03-23T16:11:56.671Z,14.64
2023-03-23T16:14:24.054Z,14.68
2023-03-23T16:16:52.932Z,14.54
2023-03-23T16:19:24.367Z,14.48
2023-03-23T16:21:51.983Z,14.66
2023-03-23T16:24:19.747Z,14.50
2023-03-23T16:26:47.246Z,14.43
2023-03-23T16:29:29.059Z,14.59
2023-03-23T16:32:04.408Z,14.51
2023-03-23T16:34:33.774Z,14.45
2023-03-23T16:37:01.594Z,14.48
2023-03-23T16:39:28.960Z,14.63
2023-03-23T16:41:56.310Z,14.64
2023-03-23T16:44:23.714Z,14.69
2023-03-23T16:46:51.048Z,14.73
2023-03-23T16:49:18.377Z,14.76
2023-03-23T16:51:46.592Z,14.75
2023-03-23T16:54:13.935Z,14.73
2023-03-23T16:56:41.441Z,14.58
2023-03-23T16:59:08.869Z,14.87
2023-03-23T17:01:36.759Z,14.81
2023-03-23T17:04:04.885Z,14.95
2023-03-23T17:06:32.210Z,15.08
2023-03-23T17:08:59.597Z,15.46
2023-03-23T17:11:27.040Z,15.55
2023-03-23T17:13:54.412Z,15.53
2023-03-23T17:16:21.839Z,15.55
2023-03-23T17:18:49.224Z,15.57
2023-03-23T17:21:16.634Z,15.60
2023-03-23T17:23:43.959Z,15.57
2023-03-23T17:26:11.471Z,15.59
2023-03-23T17:28:38.853Z,15.59
2023-03-23T17:31:06.586Z,15.58
2023-03-23T17:33:34.080Z,15.48
2023-03-23T17:36:01.471Z,15.50
2023-03-23T17:38:28.897Z,15.52
2023-03-23T17:41:00.607Z,15.41
2023-03-23T17:43:28.501Z,15.41
2023-03-23T17:45:56.038Z,15.47
2023-03-23T17:48:23.463Z,15.48
2023-03-23T17:50:55.419Z,15.49
2023-03-23T17:53:24.214Z,15.52
2023-03-23T17:55:52.636Z,15.48
2023-03-23T17:58:20.278Z,15.50
2023-03-23T18:00:47.658Z,15.46
2023-03-23T18:03:15.643Z,15.47
2023-03-23T18:05:43.368Z,15.48
2023-03-23T18:08:11.132Z,15.51
2023-03-23T18:10:40.184Z,15.65
2023-03-23T18:13:08.613Z,15.60
2023-03-23T18:15:37.160Z,15.58
2023-03-23T18:18:05.940Z,15.61
2023-03-23T18:20:33.686Z,15.60
2023-03-23T18:23:01.089Z,15.60
2023-03-23T18:25:28.411Z,15.54
2023-03-23T18:27:56.183Z,15.50
2023-03-23T18:30:32.387Z,15.49
2023-03-23T18:32:59.735Z,15.56
2023-03-23T18:35:27.171Z,15.55
2023-03-23T18:37:54.569Z,15.58
2023-03-23T18:40:21.925Z,15.57
2023-03-23T18:42:49.350Z,15.52
2023-03-23T18:45:16.887Z,15.59
2023-03-23T18:47:44.337Z,15.65
2023-03-23T18:50:11.891Z,15.66
2023-03-23T18:52:39.380Z,15.62
2023-03-23T18:55:07.148Z,15.59
2023-03-23T18:57:34.786Z,15.69
2023-03-23T19:00:02.213Z,15.60
2023-03-23T19:02:29.841Z,15.66
2023-03-23T19:04:57.389Z,15.73
2023-03-23T19:07:24.746Z,15.71
2023-03-23T19:09:52.112Z,15.64
2023-03-23T19:12:19.498Z,15.61
2023-03-23T19:14:46.919Z,15.57
2023-03-23T19:17:14.260Z,15.52
2023-03-23T19:19:43.275Z,15.52
2023-03-23T19:22:12.252Z,15.64
2023-03-23T19:24:39.808Z,15.62
2023-03-23T19:27:08.046Z,15.67
2023-03-23T19:29:35.814Z,15.60
2023-03-23T19:32:03.281Z,15.56
2023-03-23T19:34:31.089Z,15.50
2023-03-23T19:37:05.351Z,15.54
2023-03-23T19:39:34.432Z,15.57
2023-03-23T19:42:01.880Z,15.62
2023-03-23T19:44:29.462Z,15.74
2023-03-23T19:46:57.630Z,15.71
2023-03-23T19:49:25.571Z,15.58
2023-03-23T19:52:06.336Z,15.74
2023-03-23T19:54:38.677Z,15.73
2023-03-23T19:57:06.543Z,15.72
2023-03-23T19:59:34.027Z,15.68
2023-03-23T20:02:02.097Z,15.66
2023-03-23T20:04:29.637Z,15.66
2023-03-23T20:06:57.277Z,15.59
2023-03-23T20:09:25.312Z,15.55
2023-03-23T20:11:53.693Z,15.51
2023-03-23T20:14:21.252Z,15.48
2023-03-23T20:16:48.623Z,15.45
2023-03-23T20:19:16.458Z,15.46
2023-03-23T20:21:44.920Z,15.44
2023-03-23T20:24:12.366Z,15.39
2023-03-23T20:26:43.176Z,15.31
2023-03-23T20:29:11.284Z,15.28
2023-03-23T20:31:40.735Z,15.26
2023-03-23T20:34:10.853Z,15.24
2023-03-23T20:36:41.995Z,15.28
2023-03-23T20:39:21.017Z,15.30
2023-03-23T20:41:54.444Z,15.32
2023-03-23T20:44:25.201Z,15.50
2023-03-23T20:46:53.758Z,15.50
2023-03-23T20:49:22.029Z,15.50
2023-03-23T20:51:50.725Z,15.55
2023-03-23T20:54:19.888Z,15.53
2023-03-23T20:56:48.142Z,15.55
2023-03-23T20:59:16.564Z,15.50
2023-03-23T21:01:44.886Z,15.55
2023-03-23T21:04:16.341Z,15.47
2023-03-23T21:06:44.846Z,15.60
2023-03-23T21:09:13.231Z,15.65
2023-03-23T21:11:41.026Z,15.56
2023-03-23T21:14:09.099Z,15.46
2023-03-23T21:16:36.987Z,15.47
2023-03-23T21:19:05.605Z,15.46
2023-03-23T21:21:34.159Z,15.50
2023-03-23T21:24:01.784Z,15.47
2023-03-23T21:26:30.658Z,15.40
2023-03-23T21:29:01.220Z,15.44
2023-03-23T21:31:31.581Z,15.43
2023-03-23T21:33:59.758Z,15.40
2023-03-23T21:36:27.556Z,15.34
2023-03-23T21:38:55.710Z,15.31
2023-03-23T21:41:23.675Z,15.32
2023-03-23T21:43:51.542Z,15.32
2023-03-23T21:46:18.986Z,15.22
2023-03-23T21:48:51.191Z,15.20
2023-03-23T21:51:24.091Z,15.29
2023-03-23T21:53:54.251Z,15.27
2023-03-23T21:56:23.732Z,15.19
2023-03-23T21:58:51.653Z,15.11
2023-03-23T22:01:19.399Z,15.01
2023-03-23T22:03:47.019Z,15.08
2023-03-23T22:06:18.269Z,15.21
2023-03-23T22:08:46.725Z,15.14
2023-03-23T22:11:20.519Z,14.97
2023-03-23T22:13:48.950Z,14.91
2023-03-23T22:16:18.387Z,14.77
2023-03-23T22:18:46.571Z,14.66
2023-03-23T22:21:15.221Z,14.78
2023-03-23T22:23:43.776Z,14.60
2023-03-23T22:26:12.182Z,14.38
2023-03-23T22:28:40.459Z,14.32
2023-03-23T22:31:13.172Z,14.40
2023-03-23T22:33:40.921Z,14.28
2023-03-23T22:36:08.982Z,14.30
2023-03-23T22:38:37.860Z,14.33
2023-03-23T22:41:09.109Z,14.34
2023-03-23T22:43:37.555Z,14.31
2023-03-23T22:46:06.044Z,14.28
2023-03-23T22:48:33.797Z,14.26
2023-03-23T22:51:01.592Z,14.21
2023-03-23T22:53:29.171Z,14.15
2023-03-23T22:55:57.502Z,14.05
2023-03-23T22:58:26.832Z,14.07
2023-03-23T23:01:03.063Z,14.02
2023-03-23T23:03:31.232Z,13.91
2023-03-23T23:05:59.492Z,13.98
2023-03-23T23:08:28.591Z,13.86
2023-03-23T23:10:58.597Z,13.22
2023-03-23T23:13:26.922Z,13.21
2023-03-23T23:15:56.581Z,13.15
2023-03-23T23:18:24.920Z,13.09
2023-03-23T23:20:55.411Z,13.06
2023-03-23T23:23:23.906Z,12.93
2023-03-23T23:25:51.662Z,12.96
2023-03-23T23:28:20.289Z,12.85
2023-03-23T23:30:48.479Z,12.79
2023-03-23T23:33:16.533Z,12.71
2023-03-23T23:35:43.930Z,12.61
2023-03-23T23:38:12.607Z,12.26
2023-03-23T23:40:44.210Z,11.98
2023-03-23T23:43:12.938Z,11.99
2023-03-23T23:45:40.938Z,11.87
2023-03-23T23:48:08.692Z,12.04
2023-03-23T23:50:36.575Z,12.01
2023-03-23T23:53:04.986Z,12.10
2023-03-23T23:55:32.722Z,12.30
2023-03-23T23:58:00.286Z,12.26
